Terminal Aerodrome Forecast
Issued by NWS Bismarck, ND

Home | Current Version | Previous Version | Text Only | Print | Product List | Glossary Off
Versions: 1 2 3 4 5 6 7 8 9 10 11 12 13 14 15 16 17 18 19 20 21 22

751
FTUS43 KBIS 081405 AAA
TAFISN
TAF AMD
KISN 081405Z 0814/0912 29008KT P6SM SCT015 BKN030
      TEMPO 0814/0818 BKN015
     FM090100 VRB03KT P6SM BKN050
     FM090400 00000KT P6SM BKN025=

USA.gov is the U.S. government's official web portal to all federal, state and local government web resources and services.